createdAt,value
2022-08-29T00:00:18.478Z,3.63
2022-08-29T00:02:51.585Z,3.35
2022-08-29T00:05:24.885Z,3.75
2022-08-29T00:07:52.499Z,4.05
2022-08-29T00:10:20.419Z,3.38
2022-08-29T00:12:47.212Z,3.55
2022-08-29T00:15:14.925Z,3.85
2022-08-29T00:17:44.085Z,4.05
2022-08-29T00:20:14.415Z,3.08
2022-08-29T00:22:41.047Z,2.47
2022-08-29T00:25:08.972Z,2.95
2022-08-29T00:27:35.606Z,2.70
2022-08-29T00:30:04.265Z,2.92
2022-08-29T00:32:35.042Z,3.03
2022-08-29T00:35:26.872Z,3.28
2022-08-29T00:37:54.739Z,3.05
2022-08-29T00:40:32.179Z,2.75
2022-08-29T00:42:59.230Z,3.17
2022-08-29T00:45:26.595Z,2.60
2022-08-29T00:48:08.520Z,3.05
2022-08-29T00:50:40.633Z,2.42
2022-08-29T00:53:19.708Z,3.55
2022-08-29T00:55:50.409Z,3.55
2022-08-29T00:58:30.893Z,3.45
2022-08-29T01:00:58.252Z,2.78
2022-08-29T01:03:26.301Z,3.13
2022-08-29T01:05:53.344Z,2.50
2022-08-29T01:08:20.001Z,3.15
2022-08-29T01:11:06.117Z,3.10
2022-08-29T01:13:40.431Z,2.83
2022-08-29T01:16:08.620Z,1.98
2022-08-29T01:18:37.725Z,2.90
2022-08-29T01:21:35.309Z,2.13
2022-08-29T01:24:39.219Z,3.55
2022-08-29T01:27:06.380Z,2.38
2022-08-29T01:29:34.570Z,2.65
2022-08-29T01:32:01.985Z,3.55
2022-08-29T01:34:29.559Z,3.13
2022-08-29T01:37:00.208Z,3.38
2022-08-29T01:39:38.519Z,3.22
2022-08-29T01:42:20.762Z,3.28
2022-08-29T01:44:55.495Z,2.35
2022-08-29T01:47:25.139Z,3.95
2022-08-29T01:49:52.284Z,2.50
2022-08-29T01:52:19.577Z,3.25
2022-08-29T01:54:46.937Z,3.15
2022-08-29T01:57:15.269Z,3.53
2022-08-29T01:59:42.820Z,3.28
2022-08-29T02:02:31.092Z,3.38
2022-08-29T02:04:58.576Z,3.58
2022-08-29T02:07:26.378Z,4.35
2022-08-29T02:09:53.920Z,3.17
2022-08-29T02:12:21.290Z,3.45
2022-08-29T02:14:49.244Z,3.95
2022-08-29T02:17:15.831Z,2.90
2022-08-29T02:19:43.467Z,3.15
2022-08-29T02:22:10.554Z,3.00
2022-08-29T02:24:37.308Z,3.70
2022-08-29T02:27:04.219Z,3.67
2022-08-29T02:29:37.810Z,3.38
2022-08-29T02:32:11.869Z,3.30
2022-08-29T02:34:38.971Z,3.22
2022-08-29T02:37:06.194Z,3.60
2022-08-29T02:39:33.477Z,3.65
2022-08-29T02:42:00.087Z,2.90
2022-08-29T02:44:26.719Z,3.28
2022-08-29T02:46:53.376Z,3.92
2022-08-29T02:49:20.079Z,3.08
2022-08-29T02:51:48.231Z,3.15
2022-08-29T02:54:14.969Z,4.28
2022-08-29T02:56:41.943Z,3.83
2022-08-29T02:59:08.747Z,4.18
2022-08-29T03:01:38.426Z,3.53
2022-08-29T03:04:05.719Z,3.38
2022-08-29T03:06:32.388Z,3.83
2022-08-29T03:08:59.177Z,3.45
2022-08-29T03:11:27.000Z,3.03
2022-08-29T03:13:57.847Z,4.32
2022-08-29T03:16:25.743Z,2.70
2022-08-29T03:18:52.597Z,3.53
2022-08-29T03:21:22.468Z,3.55
2022-08-29T03:23:50.292Z,3.63
2022-08-29T03:26:17.731Z,3.78
2022-08-29T03:28:44.504Z,4.25
2022-08-29T03:31:11.206Z,4.10
2022-08-29T03:33:38.865Z,4.20
2022-08-29T03:36:13.815Z,4.03
2022-08-29T03:38:42.475Z,3.78
2022-08-29T03:41:09.696Z,4.10
2022-08-29T03:43:36.567Z,4.38
2022-08-29T03:46:03.312Z,3.95
2022-08-29T03:48:29.979Z,4.70
2022-08-29T03:50:56.767Z,4.63
2022-08-29T03:53:24.051Z,3.83
2022-08-29T03:55:50.725Z,5.10
2022-08-29T03:58:17.484Z,5.07
2022-08-29T04:00:46.693Z,4.22
2022-08-29T04:03:13.552Z,3.97
2022-08-29T04:05:41.113Z,4.60
2022-08-29T04:08:08.381Z,4.55
2022-08-29T04:10:37.834Z,5.70
2022-08-29T04:13:08.527Z,4.93
2022-08-29T04:15:36.053Z,5.28
2022-08-29T04:18:06.902Z,4.28
2022-08-29T04:20:39.056Z,5.10
2022-08-29T04:23:06.290Z,5.00
2022-08-29T04:25:37.305Z,3.78
2022-08-29T04:28:06.757Z,5.57
2022-08-29T04:30:34.824Z,5.05
2022-08-29T04:33:01.848Z,4.97
2022-08-29T04:35:28.853Z,4.97
2022-08-29T04:37:55.591Z,3.97
2022-08-29T04:40:22.929Z,3.92
2022-08-29T04:42:52.264Z,4.72
2022-08-29T04:45:21.338Z,4.50
2022-08-29T04:47:48.325Z,5.32
2022-08-29T04:50:18.214Z,3.85
2022-08-29T04:52:47.179Z,4.28
2022-08-29T04:55:19.446Z,3.80
2022-08-29T04:57:50.527Z,4.22
2022-08-29T05:00:23.355Z,4.45
2022-08-29T05:02:50.038Z,4.03
2022-08-29T05:05:19.908Z,3.72
2022-08-29T05:07:46.572Z,4.15
2022-08-29T05:10:17.261Z,3.20
2022-08-29T05:12:44.632Z,4.05
2022-08-29T05:15:12.568Z,3.13
2022-08-29T05:17:39.309Z,3.78
2022-08-29T05:20:07.708Z,3.20
2022-08-29T05:22:34.858Z,3.17
2022-08-29T05:25:02.840Z,2.53
2022-08-29T05:27:29.776Z,2.97
2022-08-29T05:29:56.400Z,2.78
2022-08-29T05:32:22.994Z,3.05
2022-08-29T05:34:49.905Z,2.90
2022-08-29T05:37:22.046Z,2.38
2022-08-29T05:39:49.688Z,2.42
2022-08-29T05:42:17.737Z,2.22
2022-08-29T05:44:44.556Z,2.35
2022-08-29T05:47:13.632Z,2.17
2022-08-29T05:49:42.896Z,2.67
2022-08-29T05:52:10.479Z,2.17
2022-08-29T05:54:39.725Z,2.20
2022-08-29T05:57:07.796Z,2.03
2022-08-29T05:59:35.325Z,2.55
2022-08-29T06:02:02.272Z,2.22
2022-08-29T06:04:30.773Z,2.75
2022-08-29T06:06:57.424Z,2.50
2022-08-29T06:09:24.080Z,2.08
2022-08-29T06:11:53.076Z,2.35
2022-08-29T06:14:19.783Z,2.40
2022-08-29T06:16:46.411Z,2.13
2022-08-29T06:19:13.460Z,2.55
2022-08-29T06:21:40.181Z,2.50
2022-08-29T06:24:07.387Z,2.20
2022-08-29T06:26:34.732Z,2.50
2022-08-29T06:29:05.404Z,1.42
2022-08-29T06:31:32.192Z,1.80
2022-08-29T06:34:01.209Z,1.98
2022-08-29T06:36:29.650Z,2.40
2022-08-29T06:38:58.899Z,2.20
2022-08-29T06:41:26.869Z,1.95
2022-08-29T06:43:56.670Z,1.95
2022-08-29T06:46:32.020Z,1.15
2022-08-29T06:49:00.691Z,1.83
2022-08-29T06:51:32.669Z,1.75
2022-08-29T06:54:04.207Z,1.70
2022-08-29T06:56:36.725Z,1.55
2022-08-29T06:59:04.215Z,2.03
2022-08-29T07:01:31.307Z,1.73
2022-08-29T07:04:00.325Z,1.83
2022-08-29T07:06:27.713Z,1.45
2022-08-29T07:08:55.787Z,1.50
2022-08-29T07:11:25.943Z,1.40
2022-08-29T07:13:52.846Z,1.60
2022-08-29T07:16:19.832Z,1.30
2022-08-29T07:18:47.063Z,1.42
2022-08-29T07:21:20.357Z,1.50
2022-08-29T07:23:47.564Z,1.23
2022-08-29T07:26:18.126Z,1.27
2022-08-29T07:28:47.485Z,1.35
2022-08-29T07:31:14.306Z,1.48
2022-08-29T07:33:41.765Z,1.20
2022-08-29T07:36:09.197Z,1.35
2022-08-29T07:38:36.489Z,1.00
2022-08-29T07:41:07.881Z,1.30
2022-08-29T07:43:35.818Z,0.90
2022-08-29T07:46:11.204Z,1.40
2022-08-29T07:48:38.700Z,1.52
2022-08-29T07:51:10.732Z,1.70
2022-08-29T07:53:38.129Z,1.08
2022-08-29T07:56:09.904Z,1.20
2022-08-29T07:58:36.940Z,1.00
2022-08-29T08:01:04.601Z,1.23
2022-08-29T08:03:32.087Z,1.02
2022-08-29T08:05:59.574Z,1.30
2022-08-29T08:08:26.591Z,1.13
2022-08-29T08:10:53.512Z,1.30
2022-08-29T08:13:20.476Z,1.13
2022-08-29T08:15:48.777Z,1.40
2022-08-29T08:18:16.350Z,0.98
2022-08-29T08:20:48.367Z,1.55
2022-08-29T08:23:19.026Z,1.00
2022-08-29T08:25:45.923Z,1.08
2022-08-29T08:28:14.072Z,1.42
2022-08-29T08:30:41.316Z,1.30
2022-08-29T08:33:08.005Z,1.70
2022-08-29T08:35:35.915Z,1.10
2022-08-29T08:38:02.904Z,1.23
2022-08-29T08:40:32.015Z,1.20
2022-08-29T08:43:02.614Z,1.42
2022-08-29T08:45:43.868Z,1.25
2022-08-29T08:48:20.776Z,1.63
2022-08-29T08:50:56.989Z,1.30
2022-08-29T08:53:34.736Z,1.10
2022-08-29T08:56:11.330Z,1.17
2022-08-29T08:58:59.504Z,1.10
2022-08-29T09:01:32.468Z,0.80
2022-08-29T09:04:23.784Z,0.80
2022-08-29T09:07:14.803Z,1.10
2022-08-29T09:09:57.512Z,0.98
2022-08-29T09:13:00.644Z,0.80
2022-08-29T09:15:46.960Z,0.50
2022-08-29T09:18:32.304Z,0.70
2022-08-29T09:21:09.889Z,0.73
2022-08-29T09:23:59.608Z,0.47
2022-08-29T09:26:29.428Z,0.60
2022-08-29T09:28:57.135Z,0.80
2022-08-29T09:31:32.420Z,0.65
2022-08-29T09:34:05.828Z,0.50
2022-08-29T09:36:48.635Z,0.80
2022-08-29T09:39:17.575Z,0.73
2022-08-29T09:41:47.592Z,0.80
2022-08-29T09:44:21.591Z,0.60
2022-08-29T09:47:19.224Z,0.47
2022-08-29T09:50:06.984Z,0.82
2022-08-29T09:52:35.200Z,0.57
2022-08-29T09:55:24.377Z,0.63
2022-08-29T09:57:59.528Z,0.50
2022-08-29T10:00:30.184Z,0.60
2022-08-29T10:03:00.279Z,1.30
2022-08-29T10:05:41.397Z,1.33
2022-08-29T10:08:24.621Z,1.40
2022-08-29T10:10:54.632Z,0.65
2022-08-29T10:13:47.122Z,0.80
2022-08-29T10:16:29.667Z,0.40
2022-08-29T10:19:02.319Z,0.70
2022-08-29T10:21:58.669Z,0.50
2022-08-29T10:24:54.980Z,0.52
2022-08-29T10:27:43.562Z,0.60
2022-08-29T10:30:12.280Z,0.50
2022-08-29T10:32:50.766Z,0.60
2022-08-29T10:35:28.056Z,0.50
2022-08-29T10:38:05.712Z,0.50
2022-08-29T10:40:49.739Z,0.50
2022-08-29T10:43:21.924Z,0.70
2022-08-29T10:46:12.696Z,0.43
2022-08-29T10:49:06.283Z,0.70
2022-08-29T10:51:38.877Z,0.57
2022-08-29T10:54:19.991Z,0.60
2022-08-29T10:56:49.141Z,0.70
2022-08-29T10:59:44.475Z,0.60
2022-08-29T11:02:32.616Z,0.60
2022-08-29T11:05:02.799Z,0.70
2022-08-29T11:07:36.543Z,0.80
2022-08-29T11:10:13.290Z,0.73
2022-08-29T11:12:50.415Z,0.90
2022-08-29T11:15:24.244Z,0.75
2022-08-29T11:18:06.253Z,0.80
2022-08-29T11:20:39.072Z,0.70
2022-08-29T11:23:16.569Z,0.70
2022-08-29T11:25:44.456Z,0.60
2022-08-29T11:28:26.388Z,0.98
2022-08-29T11:31:33.442Z,0.60
2022-08-29T11:34:19.963Z,1.40
2022-08-29T11:37:05.553Z,1.17
2022-08-29T11:39:45.659Z,0.80
2022-08-29T11:42:49.870Z,0.80
2022-08-29T11:45:06.924Z,0.68
2022-08-29T11:47:41.088Z,0.70
2022-08-29T11:50:19.264Z,0.63
2022-08-29T11:52:56.220Z,0.80
2022-08-29T11:55:41.972Z,0.70
2022-08-29T11:58:28.907Z,0.55
2022-08-29T12:00:57.330Z,0.80
2022-08-29T12:03:33.980Z,0.80
2022-08-29T12:06:27.959Z,0.70
2022-08-29T12:09:47.296Z,0.70
2022-08-29T12:12:20.115Z,0.77
2022-08-29T12:14:50.018Z,0.77
2022-08-29T12:17:16.593Z,1.27
2022-08-29T12:19:49.211Z,0.80
2022-08-29T12:25:30.008Z,0.90
2022-08-29T12:28:06.032Z,0.95
2022-08-29T12:30:42.377Z,0.77
2022-08-29T12:33:36.798Z,0.85
2022-08-29T12:36:09.377Z,0.70
2022-08-29T12:38:46.003Z,0.75
2022-08-29T12:41:26.419Z,0.50
2022-08-29T12:43:58.107Z,0.80
2022-08-29T12:46:30.889Z,0.40
2022-08-29T12:49:14.663Z,0.70
2022-08-29T12:51:43.381Z,0.85
2022-08-29T12:54:12.068Z,0.70
2022-08-29T12:56:47.279Z,0.63
2022-08-29T12:59:21.245Z,0.70
2022-08-29T13:01:54.416Z,0.68
2022-08-29T13:04:32.389Z,0.70
2022-08-29T13:07:05.773Z,0.80
2022-08-29T13:09:41.504Z,1.00
2022-08-29T13:12:27.697Z,0.52
2022-08-29T13:15:06.856Z,0.60
2022-08-29T13:17:36.588Z,0.70
2022-08-29T13:20:40.965Z,0.60
2022-08-29T13:23:16.261Z,1.00
2022-08-29T13:26:05.371Z,0.68
2022-08-29T13:28:58.532Z,0.77
2022-08-29T13:31:35.929Z,0.43
2022-08-29T13:34:22.930Z,0.50
2022-08-29T13:37:28.372Z,0.77
2022-08-29T13:39:56.625Z,0.50
2022-08-29T13:42:28.297Z,0.68
2022-08-29T13:45:07.930Z,0.40
2022-08-29T13:47:55.387Z,0.50
2022-08-29T13:50:23.172Z,0.60
2022-08-29T13:52:54.808Z,0.60
2022-08-29T13:55:22.027Z,0.50
2022-08-29T13:57:53.197Z,0.50
2022-08-29T14:00:32.465Z,0.43
2022-08-29T14:03:03.225Z,0.35
2022-08-29T14:05:30.121Z,0.38
2022-08-29T14:07:57.079Z,0.65
2022-08-29T14:10:24.165Z,0.70
2022-08-29T14:12:50.828Z,0.43
2022-08-29T14:15:18.100Z,0.80
2022-08-29T14:17:46.982Z,0.47
2022-08-29T14:20:15.216Z,0.68
2022-08-29T14:22:42.159Z,0.68
2022-08-29T14:25:10.436Z,0.30
2022-08-29T14:27:38.348Z,0.60
2022-08-29T14:30:10.306Z,0.55
2022-08-29T14:32:37.328Z,0.60
2022-08-29T14:35:05.493Z,0.70
2022-08-29T14:37:32.403Z,0.45
2022-08-29T14:39:59.067Z,0.50
2022-08-29T14:42:25.783Z,0.70
2022-08-29T14:44:52.555Z,0.35
2022-08-29T14:47:19.224Z,1.15
2022-08-29T14:49:45.809Z,0.50
2022-08-29T14:52:14.948Z,0.73
2022-08-29T14:54:43.099Z,0.40
2022-08-29T14:57:10.917Z,0.50
2022-08-29T14:59:39.626Z,0.50
2022-08-29T15:02:07.946Z,0.52
2022-08-29T15:04:36.608Z,0.50
2022-08-29T15:07:09.609Z,0.45
2022-08-29T15:09:36.503Z,0.60
2022-08-29T15:12:03.653Z,0.50
2022-08-29T15:14:31.199Z,0.50
2022-08-29T15:16:57.817Z,0.50
2022-08-29T15:20:04.104Z,0.40
2022-08-29T15:22:12.325Z,0.40
2022-08-29T15:24:39.276Z,0.47
2022-08-29T15:27:06.952Z,0.45
2022-08-29T15:29:34.761Z,0.50
2022-08-29T15:32:01.456Z,0.50
2022-08-29T15:34:28.947Z,0.82
2022-08-29T15:36:56.328Z,0.60
2022-08-29T15:39:23.533Z,0.57
2022-08-29T15:41:50.252Z,0.60
2022-08-29T15:44:16.884Z,0.55
2022-08-29T15:46:50.941Z,0.60
2022-08-29T15:49:19.419Z,0.70
2022-08-29T15:51:46.814Z,0.88
2022-08-29T15:54:16.495Z,0.70
2022-08-29T15:56:43.879Z,0.55
2022-08-29T15:59:12.933Z,0.60
2022-08-29T16:01:45.066Z,0.60
2022-08-29T16:04:13.669Z,0.57
2022-08-29T16:06:40.800Z,0.55
2022-08-29T16:09:15.271Z,0.60
2022-08-29T16:11:47.259Z,0.60
2022-08-29T16:17:03.918Z,0.30
2022-08-29T16:19:30.615Z,0.40
2022-08-29T16:21:59.794Z,0.60
2022-08-29T16:24:28.788Z,0.60
2022-08-29T16:26:55.543Z,0.50
2022-08-29T16:29:26.772Z,0.47
2022-08-29T16:31:58.374Z,0.30
2022-08-29T16:34:26.646Z,0.50
2022-08-29T16:36:57.390Z,0.60
2022-08-29T16:39:24.363Z,0.40
2022-08-29T16:41:51.247Z,1.58
2022-08-29T16:44:17.923Z,0.30
2022-08-29T16:46:44.558Z,0.50
2022-08-29T16:49:11.353Z,0.60
2022-08-29T16:51:38.252Z,0.60
2022-08-29T16:54:05.370Z,0.70
2022-08-29T16:56:32.815Z,0.50
2022-08-29T16:59:00.037Z,0.40
2022-08-29T17:01:30.040Z,0.50
2022-08-29T17:03:57.096Z,0.50
2022-08-29T17:06:23.757Z,0.70
2022-08-29T17:08:50.389Z,0.63
2022-08-29T17:11:19.083Z,0.40
2022-08-29T17:13:45.957Z,0.50
2022-08-29T17:16:12.987Z,0.40
2022-08-29T17:18:40.249Z,0.55
2022-08-29T17:21:08.093Z,0.57
2022-08-29T17:23:38.693Z,0.50
2022-08-29T17:26:08.639Z,0.75
2022-08-29T17:28:38.099Z,1.02
2022-08-29T17:31:05.555Z,0.47
2022-08-29T17:33:32.924Z,0.70
2022-08-29T17:35:59.623Z,0.50
2022-08-29T17:38:26.868Z,0.60
2022-08-29T17:40:58.563Z,0.50
2022-08-29T17:43:27.312Z,0.40
2022-08-29T17:45:54.473Z,1.05
2022-08-29T17:48:21.432Z,0.52
2022-08-29T17:50:49.377Z,0.30
2022-08-29T17:53:16.599Z,0.50
2022-08-29T17:55:43.340Z,0.63
2022-08-29T17:58:09.923Z,0.40
2022-08-29T18:00:37.064Z,0.60
2022-08-29T18:03:04.241Z,0.47
2022-08-29T18:05:30.925Z,0.50
2022-08-29T18:07:57.600Z,1.73
2022-08-29T18:10:25.124Z,1.17
2022-08-29T18:12:51.987Z,0.60
2022-08-29T18:15:18.842Z,0.50
2022-08-29T18:17:45.677Z,0.88
2022-08-29T18:20:15.199Z,0.50
2022-08-29T18:22:43.227Z,0.38
2022-08-29T18:25:11.450Z,0.50
2022-08-29T18:27:43.664Z,1.20
2022-08-29T18:30:13.462Z,0.77
2022-08-29T18:32:41.251Z,0.70
2022-08-29T18:35:08.943Z,0.90
2022-08-29T18:37:35.843Z,0.85
2022-08-29T18:40:04.950Z,0.82
2022-08-29T18:42:40.543Z,1.20
2022-08-29T18:45:09.371Z,0.60
2022-08-29T18:47:36.369Z,0.50
2022-08-29T18:50:32.932Z,0.60
2022-08-29T18:53:01.944Z,0.50
2022-08-29T18:55:28.595Z,0.75
2022-08-29T18:57:55.890Z,1.10
2022-08-29T19:00:24.857Z,1.00
2022-08-29T19:02:53.436Z,0.30
2022-08-29T19:05:20.612Z,0.43
2022-08-29T19:07:47.249Z,0.80
2022-08-29T19:10:13.993Z,1.10
2022-08-29T19:12:40.707Z,0.55
2022-08-29T19:15:08.947Z,0.60
2022-08-29T19:17:35.745Z,0.50
2022-08-29T19:20:21.225Z,0.73
2022-08-29T19:22:47.815Z,0.70
2022-08-29T19:25:14.398Z,0.85
2022-08-29T19:27:43.996Z,0.88
2022-08-29T19:30:13.284Z,0.80
2022-08-29T19:32:40.098Z,0.77
2022-08-29T19:35:07.621Z,0.70
2022-08-29T19:37:34.412Z,1.10
2022-08-29T19:40:02.026Z,1.05
2022-08-29T19:42:28.645Z,1.98
2022-08-29T19:44:55.323Z,0.80
2022-08-29T19:47:23.324Z,0.70
2022-08-29T19:49:51.599Z,0.63
2022-08-29T19:52:18.583Z,0.50
2022-08-29T19:54:45.311Z,0.60
2022-08-29T19:57:14.814Z,0.40
2022-08-29T19:59:42.414Z,0.63
2022-08-29T20:02:10.672Z,0.40
2022-08-29T20:04:38.269Z,0.45
2022-08-29T20:07:05.271Z,0.57
2022-08-29T20:09:31.953Z,0.50
2022-08-29T20:11:59.074Z,0.50
2022-08-29T20:14:25.704Z,0.35
2022-08-29T20:16:52.733Z,0.70
2022-08-29T20:19:21.230Z,0.73
2022-08-29T20:21:48.745Z,0.50
2022-08-29T20:24:16.508Z,0.85
2022-08-29T20:26:44.289Z,0.90
2022-08-29T20:29:12.532Z,1.13
2022-08-29T20:31:40.064Z,0.52
2022-08-29T20:34:06.743Z,0.50
2022-08-29T20:36:52.113Z,0.50
2022-08-29T20:39:20.666Z,1.42
2022-08-29T20:41:55.353Z,1.70
2022-08-29T20:44:23.778Z,1.83
2022-08-29T20:46:51.905Z,0.90
2022-08-29T20:49:21.997Z,0.57
2022-08-29T20:51:50.100Z,0.75
2022-08-29T20:54:20.403Z,0.70
2022-08-29T20:56:48.437Z,0.60
2022-08-29T20:59:15.313Z,0.52
2022-08-29T21:01:43.200Z,0.40
2022-08-29T21:04:30.658Z,0.70
2022-08-29T21:07:04.157Z,0.70
2022-08-29T21:09:31.415Z,0.57
2022-08-29T21:11:58.434Z,0.60
2022-08-29T21:14:27.107Z,0.45
2022-08-29T21:16:56.718Z,0.60
2022-08-29T21:19:26.281Z,0.30
2022-08-29T21:21:53.803Z,0.90
2022-08-29T21:24:20.644Z,0.50
2022-08-29T21:26:47.697Z,0.50
2022-08-29T21:29:14.659Z,0.50
2022-08-29T21:31:41.430Z,0.55
2022-08-29T21:34:10.438Z,0.50
2022-08-29T21:36:38.850Z,0.50
2022-08-29T21:39:08.645Z,0.57
2022-08-29T21:41:39.724Z,0.65
2022-08-29T21:44:07.299Z,0.73
2022-08-29T21:46:37.512Z,0.43
2022-08-29T21:49:06.834Z,0.80
2022-08-29T21:51:34.992Z,0.50
2022-08-29T21:54:02.283Z,0.50
2022-08-29T21:56:30.784Z,0.60
2022-08-29T21:58:58.429Z,0.60
2022-08-29T22:01:29.719Z,0.40
2022-08-29T22:03:58.330Z,0.50
2022-08-29T22:06:27.648Z,0.60
2022-08-29T22:08:55.607Z,0.88
2022-08-29T22:11:37.247Z,0.40
2022-08-29T22:14:06.357Z,0.57
2022-08-29T22:16:33.795Z,0.40
2022-08-29T22:19:08.747Z,0.52
2022-08-29T22:21:45.207Z,0.50
2022-08-29T22:24:13.032Z,0.60
2022-08-29T22:26:41.017Z,0.47
2022-08-29T22:29:11.787Z,0.63
2022-08-29T22:31:39.115Z,0.50
2022-08-29T22:34:09.657Z,0.40
2022-08-29T22:36:36.251Z,0.30
2022-08-29T22:39:03.589Z,0.32
2022-08-29T22:41:30.199Z,0.40
2022-08-29T22:44:31.961Z,0.50
2022-08-29T22:46:45.145Z,0.50
2022-08-29T22:49:12.496Z,0.50
2022-08-29T22:51:39.265Z,0.60
2022-08-29T22:54:24.384Z,0.57
2022-08-29T22:56:54.629Z,0.73
2022-08-29T22:59:22.020Z,0.70
2022-08-29T23:01:49.027Z,0.47
2022-08-29T23:04:15.699Z,0.47
2022-08-29T23:06:42.462Z,0.40
2022-08-29T23:09:09.308Z,0.63
2022-08-29T23:11:36.325Z,0.63
2022-08-29T23:14:04.155Z,0.80
2022-08-29T23:16:31.201Z,0.60
2022-08-29T23:18:57.866Z,0.50
2022-08-29T23:21:24.543Z,0.70
2022-08-29T23:23:51.688Z,0.73
2022-08-29T23:26:19.364Z,0.30
2022-08-29T23:28:46.343Z,0.50
2022-08-29T23:31:14.549Z,0.40
2022-08-29T23:33:41.510Z,0.90
2022-08-29T23:36:08.648Z,0.77
2022-08-29T23:38:35.284Z,0.57
2022-08-29T23:41:02.214Z,0.50
2022-08-29T23:43:30.841Z,0.77
2022-08-29T23:46:04.276Z,0.63
2022-08-29T23:48:31.055Z,0.43
2022-08-29T23:50:58.063Z,0.40
2022-08-29T23:53:24.731Z,0.52
2022-08-29T23:55:51.660Z,0.60
2022-08-29T23:58:18.853Z,0.93
